Date,TemperatureHighF,TemperatureAvgF,TemperatureLowF,DewpointHighF,DewpointAvgF,DewpointLowF,HumidityHigh,HumidityAvg,HumidityLow,PressureMaxIn,PressureMinIn,WindSpeedMaxMPH,WindSpeedAvgMPH,GustSpeedMaxMPH,PrecipitationSumIn
2013-9-29,70.9,56.7,42.1,52.3,44.6,-99.9,99,70,38,29.92,29.82,10,-15,0,0.09
2013-9-30,72.1,54.2,43.2,52.9,48.4,42.9,99,84,44,29.85,29.72,7,2,0,0.00
2013-10-1,81.5,58.0,41.5,57.9,49.4,41.2,99,78,37,29.79,29.67,8,2,0,0.00
2013-10-2,81.9,64.7,48.4,59.9,55.6,48.1,99,76,45,29.84,29.69,14,3,0,0.00
2013-10-3,80.1,61.6,47.8,56.4,51.4,44.7,99,75,32,29.99,29.85,7,1,0,0.00
2013-10-4,63.9,56.2,46.9,59.6,54.8,46.4,99,95,86,30.02,29.94,4,0,0,0.40
2013-10-5,69.8,60.4,54.5,59.0,56.5,54.2,99,88,67,30.04,29.97,7,2,0,0.00
2013-10-6,58.1,55.7,53.2,57.3,55.3,52.9,99,99,94,30.15,30.02,8,3,0,0.55
2013-10-7,78.1,66.2,56.7,70.7,63.1,56.4,99,91,70,30.02,29.69,16,4,0,0.18
2013-10-8,66.7,56.8,42.1,56.5,44.8,38.2,95,67,37,30.28,29.78,12,3,0,0.00
2013-10-9,63.7,48.3,37.6,47.8,42.0,37.3,99,82,48,30.38,30.24,10,2,0,0.00
2013-10-10,63.7,49.8,36.9,52.7,46.3,36.6,99,89,63,30.23,30.03,8,2,0,0.00
2013-10-11,72.0,55.6,43.2,53.9,46.1,32.7,99,76,24,30.03,29.91,9,1,0,0.00
2013-10-12,59.2,53.0,43.0,56.4,50.9,42.7,99,93,83,30.23,29.98,12,4,0,0.00
2013-10-13,63.0,50.4,36.7,50.7,45.0,36.4,99,84,51,30.28,30.20,8,2,0,0.00
2013-10-14,68.2,47.7,31.5,49.3,41.1,31.3,99,82,33,30.21,30.03,6,1,0,0.00
2013-10-15,65.1,54.7,46.4,54.9,50.8,46.1,99,88,68,30.05,29.95,6,2,0,0.00
2013-10-16,63.1,54.0,46.6,55.5,51.7,46.3,99,93,71,29.95,29.70,6,1,0,0.00
2013-10-17,75.7,60.9,51.1,60.4,55.9,50.8,99,86,50,29.71,29.50,10,2,0,0.00
2013-10-18,68.7,60.1,42.8,61.9,51.2,41.2,99,76,42,29.71,29.40,14,5,0,0.07
2013-10-19,68.5,53.1,35.1,46.1,41.4,34.8,99,69,38,29.80,29.58,8,2,0,0.00
2013-10-20,63.1,52.8,35.8,51.5,40.5,34.1,99,67,35,29.85,29.52,14,4,0,0.00
2013-10-21,70.5,49.9,31.5,45.9,38.8,31.3,99,71,35,29.97,29.83,10,2,0,0.00
2013-10-22,67.1,54.7,41.2,51.7,45.4,37.3,99,73,51,29.83,29.54,10,3,0,0.00
2013-10-23,53.4,43.9,32.5,37.9,34.8,31.1,99,73,44,29.65,29.46,5,1,0,0.00
2013-10-24,54.1,45.1,32.5,35.5,29.8,24.9,98,58,35,29.76,29.50,19,4,0,0.00
2013-10-25,51.3,39.5,27.3,34.4,28.9,25.8,99,69,39,30.04,29.76,14,3,0,0.00
2013-10-26,55.9,41.1,23.5,34.7,28.1,23.3,99,66,30,30.04,29.75,18,4,0,0.00
2013-10-27,55.2,47.7,36.0,40.9,34.2,28.8,95,62,38,29.94,29.70,13,5,0,0.04
2013-10-28,59.9,42.7,27.0,34.9,30.1,23.0,99,65,36,30.24,29.95,20,4,0,0.00
2013-10-29,52.5,35.3,25.7,31.1,26.2,20.7,99,74,31,30.35,30.24,7,1,0,0.00
2013-10-30,54.1,36.9,27.3,41.6,34.3,27.1,99,91,60,30.25,30.06,3,0,0,0.06
2013-10-31,62.4,46.1,28.2,59.8,44.5,28.0,99,95,80,30.12,29.65,10,2,0,0.18
2013-11-1,71.6,64.9,57.2,63.6,58.3,53.2,99,80,62,29.64,29.31,19,9,0,0.13
2013-11-2,68.7,55.0,43.0,53.5,45.4,40.2,99,74,37,29.60,29.45,9,2,0,0.00
2013-11-3,50.5,41.3,30.7,47.7,30.8,15.4,97,69,36,30.30,29.58,13,4,0,0.01
2013-11-4,45.3,32.2,22.6,22.0,18.1,14.6,96,60,30,30.61,30.31,12,3,0,0.00
2013-11-5,52.3,35.6,21.0,35.5,28.0,20.2,99,78,41,30.64,30.40,7,1,0,0.00
2013-11-6,62.2,49.8,34.7,49.7,41.0,32.9,97,74,47,30.40,29.90,10,4,0,0.00
2013-11-7,66.7,53.7,39.0,58.3,50.3,35.1,98,89,68,29.90,29.54,14,5,0,0.24
2013-11-8,48.7,40.3,33.4,35.3,27.9,22.1,96,62,45,29.97,29.68,19,7,0,0.05
2013-11-9,45.0,38.7,29.3,29.3,23.6,20.7,75,55,39,30.10,29.93,14,4,0,0.00
2013-11-10,53.8,45.4,39.2,44.6,36.2,28.5,99,72,51,29.91,29.60,11,4,0,0.06
2013-11-11,52.3,45.6,39.6,32.3,27.9,25.1,66,51,35,29.99,29.71,13,6,0,0.00
2013-11-12,48.7,35.1,25.2,40.6,24.2,15.3,97,65,50,30.06,29.76,14,6,0,0.14
2013-11-13,37.4,28.4,21.7,16.3,14.1,10.6,76,56,36,30.18,30.06,17,5,0,0.00
2013-11-14,52.0,37.6,26.4,25.2,20.8,15.4,84,52,31,30.05,29.91,14,4,0,0.00
2013-11-15,62.6,42.7,22.8,32.0,23.3,16.5,95,54,17,30.09,29.98,9,2,0,0.00
2013-11-16,62.1,43.0,28.9,33.6,30.4,23.6,99,66,24,30.20,30.06,7,1,0,0.00
2013-11-17,56.5,43.6,27.3,54.2,40.9,27.1,99,91,70,30.22,29.73,7,2,0,0.02
2013-11-18,66.4,58.9,48.6,62.5,48.1,31.3,99,70,42,29.72,29.36,17,6,0,0.30
2013-11-19,49.1,39.4,31.1,30.8,21.4,15.6,56,49,37,30.15,29.52,22,9,0,0.00
2013-11-20,43.2,31.4,18.9,16.6,14.5,12.5,86,52,29,30.52,30.15,16,5,0,0.00
2013-11-21,48.2,31.7,17.2,27.9,20.3,14.7,96,67,31,30.55,30.25,9,1,0,0.00
2013-11-22,45.3,40.2,34.2,45.0,38.6,27.4,99,94,74,30.25,29.69,4,0,0,0.33
2013-11-23,45.9,39.5,29.7,45.6,26.4,7.5,99,62,34,29.79,29.65,22,8,0,0.00
2013-11-24,29.3,24.4,19.9,16.2,3.6,-4.0,72,41,27,30.05,29.65,28,13,0,0.02
2013-11-25,36.1,25.0,16.3,15.2,0.6,-9.3,52,35,17,30.27,30.06,15,6,0,0.00
2013-11-26,39.9,34.7,30.6,34.9,22.6,14.6,99,63,46,30.24,29.94,11,3,0,0.12
2013-11-27,61.9,50.7,35.6,61.6,50.2,34.7,99,98,86,29.91,29.08,18,8,0,2.89
2013-11-28,37.8,31.2,23.7,33.9,16.2,5.0,87,55,31,30.31,29.30,21,8,0,0.00
2013-11-29,33.6,24.6,16.0,18.4,9.8,3.0,97,55,31,30.64,30.31,10,3,0,0.00
2013-11-30,34.7,22.5,10.4,23.7,15.5,7.6,96,76,52,30.71,30.31,7,1,0,0.00
2013-12-1,38.8,35.4,30.4,38.5,34.0,25.3,99,95,78,30.30,29.88,4,1,0,0.14
2013-12-2,39.6,37.2,36.0,39.3,36.9,35.7,99,99,99,29.89,29.80,6,2,0,0.01
2013-12-3,50.2,38.3,30.6,37.9,34.6,29.6,99,88,56,29.82,29.72,11,3,0,0.00
2013-12-4,42.6,32.5,24.4,30.8,26.8,24.2,99,82,52,30.09,29.82,11,2,0,0.00
2013-12-5,49.1,39.9,25.9,46.8,38.2,25.7,99,94,86,30.11,29.79,6,1,0,0.00
2013-12-6,54.5,46.6,33.1,54.2,43.6,32.8,99,90,62,30.04,29.73,12,4,0,0.35
2013-12-7,38.8,31.9,20.8,34.4,27.7,19.0,99,85,57,30.33,29.96,12,4,0,0.26
2013-12-8,30.2,25.3,16.7,22.4,18.6,15.5,99,77,55,30.48,30.34,7,1,0,0.00
2013-12-9,37.4,31.8,24.8,37.1,30.6,16.9,99,96,64,30.38,29.74,7,2,0,0.65
2013-12-10,34.7,31.0,25.0,32.8,28.1,12.8,99,90,55,29.86,29.66,16,4,0,0.02
2013-12-11,32.4,26.0,19.4,19.0,17.0,14.4,91,69,48,30.10,29.88,12,6,0,0.00
2013-12-12,25.7,18.9,11.3,18.8,7.2,-1.7,99,64,31,30.16,29.94,19,4,0,0.00
2013-12-13,30.0,21.2,13.5,20.3,10.6,1.5,85,64,49,30.28,29.88,16,6,0,0.00
2013-12-14,26.2,14.8,8.6,26.0,6.2,-5.5,99,70,49,30.51,30.05,11,5,0,0.00
2013-12-15,34.0,27.0,19.9,33.7,26.3,19.4,99,97,89,30.04,29.28,19,7,0,0.06
2013-12-16,29.1,23.6,12.2,22.8,12.7,4.7,96,65,35,30.08,29.60,18,6,0,0.00
2013-12-17,19.9,11.2,-2.7,19.7,7.8,-5.1,99,87,53,30.19,29.85,13,3,0,0.00
2013-12-18,36.1,24.5,15.4,21.7,19.1,14.5,99,82,52,29.96,29.73,14,5,0,0.01
2013-12-19,44.4,31.6,24.8,26.8,23.8,20.7,98,75,45,29.99,29.83,18,4,0,0.13
2013-12-20,53.8,39.8,26.6,37.1,31.9,26.3,99,75,51,30.01,29.77,9,2,0,0.05
2013-12-21,58.5,49.2,41.0,48.4,42.7,34.0,94,79,67,29.85,29.74,8,3,0,0.00
2013-12-22,49.8,38.3,32.2,48.7,37.9,32.0,99,99,94,29.93,29.69,10,4,0,0.04
2013-12-23,35.6,32.8,30.9,35.3,32.6,30.7,99,99,99,30.00,29.85,8,2,0,0.86
2013-12-24,35.8,31.6,25.3,35.5,23.9,13.7,99,75,50,30.09,29.94,14,4,0,0.00
2013-12-25,26.2,17.5,11.3,14.4,5.8,-0.7,96,61,40,30.46,30.09,19,5,0,0.00
2013-12-26,34.3,23.0,11.7,32.0,20.9,10.8,99,92,77,30.42,29.98,6,1,0,0.00
2013-12-27,34.0,25.0,15.1,22.3,19.4,14.6,99,81,58,30.17,30.08,11,3,0,0.00
2013-12-28,47.5,32.5,21.0,28.1,25.1,20.0,99,76,46,30.11,29.86,14,3,0,0.01
2013-12-29,43.0,34.4,25.7,38.9,32.2,25.5,99,93,64,29.93,29.30,11,2,0,1.66
2013-12-30,42.8,32.7,16.3,36.0,23.8,5.2,99,72,41,30.07,29.39,14,6,0,0.00
2013-12-31,26.4,17.1,11.3,15.6,3.6,-3.7,89,56,40,30.08,29.92,9,4,0,0.00
2014-1-1,27.3,20.0,13.3,13.9,8.0,5.2,91,60,42,30.29,30.07,17,4,0,0.00
2014-1-2,18.7,10.2,0.0,16.1,8.2,-2.7,95,91,75,30.27,29.77,18,7,0,0.00